createdAt,value
2022-07-31T00:01:46.892Z,100525.44
2022-07-31T00:06:49.694Z,100525.72
2022-07-31T00:11:52.527Z,100519.47
2022-07-31T00:16:57.433Z,100528.28
2022-07-31T00:22:00.158Z,100521.47
2022-07-31T00:27:03.177Z,100528.03
2022-07-31T00:32:07.628Z,100522.75
2022-07-31T00:37:11.021Z,100516.94
2022-07-31T00:42:18.158Z,100514.38
2022-07-31T00:47:25.537Z,100511.81
2022-07-31T00:52:28.504Z,100503.13
2022-07-31T00:57:31.191Z,100502.13
2022-07-31T01:02:35.252Z,100505.84
2022-07-31T01:07:38.072Z,100498.16
2022-07-31T01:12:52.354Z,100515.06
2022-07-31T01:17:58.307Z,100511.66
2022-07-31T01:23:29.152Z,100510.66
2022-07-31T01:29:03.910Z,100525.31
2022-07-31T01:34:09.214Z,100515.47
2022-07-31T01:39:12.262Z,100512.94
2022-07-31T01:44:16.755Z,100517.34
2022-07-31T01:49:20.590Z,100509.53
2022-07-31T01:54:23.367Z,100512.50
2022-07-31T01:59:28.208Z,100504.41
2022-07-31T02:04:47.073Z,100494.03
2022-07-31T02:09:57.826Z,100490.63
2022-07-31T02:15:07.937Z,100487.06
2022-07-31T02:20:13.140Z,100489.91
2022-07-31T02:25:16.507Z,100486.50
2022-07-31T02:30:20.629Z,100486.63
2022-07-31T02:35:25.732Z,100484.06
2022-07-31T02:40:28.505Z,100474.69
2022-07-31T02:45:32.673Z,100481.09
2022-07-31T02:50:35.577Z,100483.78
2022-07-31T02:55:38.998Z,100471.69
2022-07-31T03:00:43.435Z,100470.00
2022-07-31T03:05:46.221Z,100455.06
2022-07-31T03:10:49.216Z,100464.75
2022-07-31T03:15:53.696Z,100454.34
2022-07-31T03:20:56.683Z,100464.84
2022-07-31T03:25:59.464Z,100465.53
2022-07-31T03:31:03.593Z,100468.38
2022-07-31T03:36:09.425Z,100468.66
2022-07-31T03:41:12.342Z,100474.03
2022-07-31T03:46:16.992Z,100466.25
2022-07-31T03:51:20.165Z,100461.97
2022-07-31T03:56:22.939Z,100458.53
2022-07-31T04:01:27.129Z,100471.31
2022-07-31T04:06:55.021Z,100474.72
2022-07-31T04:11:57.863Z,100482.97
2022-07-31T04:17:02.067Z,100481.25
2022-07-31T04:22:05.483Z,100482.41
2022-07-31T04:27:12.723Z,100485.81
2022-07-31T04:32:21.666Z,100478.00
2022-07-31T04:37:35.235Z,100477.84
2022-07-31T04:42:38.555Z,100476.00
2022-07-31T04:47:42.881Z,100484.09
2022-07-31T04:52:45.601Z,100494.91
2022-07-31T04:57:48.664Z,100491.06
2022-07-31T05:02:52.692Z,100489.22
2022-07-31T05:07:55.430Z,100481.97
2022-07-31T05:13:02.667Z,100481.97
2022-07-31T05:18:08.725Z,100493.50
2022-07-31T05:23:29.742Z,100498.91
2022-07-31T05:28:58.129Z,100501.47
2022-07-31T05:34:02.635Z,100486.81
2022-07-31T05:39:05.512Z,100490.38
2022-07-31T05:44:17.060Z,100495.38
2022-07-31T05:49:26.675Z,100501.94
2022-07-31T05:54:30.033Z,100517.91
2022-07-31T05:59:51.190Z,100518.53
2022-07-31T06:04:55.813Z,100527.31
2022-07-31T06:09:58.995Z,100519.44
2022-07-31T06:15:01.875Z,100527.56
2022-07-31T06:20:11.926Z,100530.53
2022-07-31T06:25:16.473Z,100530.16
2022-07-31T06:30:19.232Z,100525.94
2022-07-31T06:35:24.840Z,100525.69
2022-07-31T06:40:46.175Z,100539.22
2022-07-31T06:46:14.285Z,100533.41
2022-07-31T06:51:50.549Z,100531.78
2022-07-31T06:56:53.349Z,100531.28
2022-07-31T07:01:56.283Z,100536.63
2022-07-31T07:07:00.445Z,100534.47
2022-07-31T07:12:03.709Z,100519.56
2022-07-31T07:17:08.012Z,100525.22
2022-07-31T07:22:12.835Z,100531.00
2022-07-31T07:27:15.945Z,100515.81
2022-07-31T07:32:18.916Z,100516.94
2022-07-31T07:37:23.489Z,100515.84
2022-07-31T07:42:26.825Z,100525.41
2022-07-31T07:48:05.164Z,100509.66
2022-07-31T07:52:54.667Z,100511.38
2022-07-31T07:58:17.958Z,100504.56
2022-07-31T08:03:48.353Z,100502.28
2022-07-31T08:08:55.745Z,100497.19
2022-07-31T08:14:16.883Z,100495.84
2022-07-31T08:19:38.393Z,100497.31
2022-07-31T08:24:44.519Z,100507.13
2022-07-31T08:29:47.592Z,100496.53
2022-07-31T08:34:53.098Z,100505.31
2022-07-31T08:39:57.511Z,100500.94
2022-07-31T08:45:00.253Z,100483.34
2022-07-31T08:50:07.304Z,100471.75
2022-07-31T08:55:54.921Z,100475.53
2022-07-31T09:00:37.527Z,100463.06
2022-07-31T09:05:42.783Z,100458.41
2022-07-31T09:10:50.195Z,100456.81
2022-07-31T09:15:53.713Z,100457.19
2022-07-31T09:20:59.622Z,100439.94
2022-07-31T09:26:04.888Z,100446.16
2022-07-31T09:31:09.348Z,100447.75
2022-07-31T09:36:30.705Z,100444.75
2022-07-31T09:42:00.009Z,100441.78
2022-07-31T09:47:40.567Z,100431.81
2022-07-31T09:52:43.849Z,100436.19
2022-07-31T09:57:54.061Z,100436.66
2022-07-31T10:02:57.766Z,100441.38
2022-07-31T10:08:02.203Z,100440.03
2022-07-31T10:13:26.739Z,100421.72
2022-07-31T10:18:36.507Z,100414.56
2022-07-31T10:24:19.134Z,100406.91
2022-07-31T10:29:26.611Z,100401.06
2022-07-31T10:34:29.662Z,100392.72
2022-07-31T10:39:54.447Z,100392.47
2022-07-31T10:45:07.694Z,100382.84
2022-07-31T10:50:21.740Z,100387.53
2022-07-31T10:55:44.852Z,100386.69
2022-07-31T11:01:07.713Z,100384.59
2022-07-31T11:06:39.160Z,100377.06
2022-07-31T11:12:00.487Z,100366.16
2022-07-31T11:18:20.871Z,100360.47
2022-07-31T11:23:09.974Z,100351.06
2022-07-31T11:28:14.462Z,100349.09
2022-07-31T11:33:29.089Z,100338.03
2022-07-31T11:38:34.601Z,100336.00
2022-07-31T11:43:39.563Z,100341.09
2022-07-31T11:48:45.653Z,100343.78
2022-07-31T11:53:56.922Z,100333.00
2022-07-31T11:59:00.556Z,100331.28
2022-07-31T12:04:08.621Z,100329.59
2022-07-31T12:10:00.954Z,100313.81
2022-07-31T12:14:36.563Z,100319.19
2022-07-31T12:19:40.957Z,100318.88
2022-07-31T12:24:44.097Z,100301.66
2022-07-31T12:29:46.938Z,100302.66
2022-07-31T12:34:51.395Z,100304.47
2022-07-31T12:40:00.718Z,100292.66
2022-07-31T12:45:19.321Z,100296.91
2022-07-31T12:50:24.905Z,100280.84
2022-07-31T12:55:29.054Z,100281.97
2022-07-31T13:00:33.244Z,100272.75
2022-07-31T13:05:40.076Z,100265.00
2022-07-31T13:10:42.855Z,100253.50
2022-07-31T13:15:46.425Z,100246.50
2022-07-31T13:20:50.654Z,100241.34
2022-07-31T13:25:53.421Z,100229.53
2022-07-31T13:30:56.227Z,100229.59
2022-07-31T13:36:00.508Z,100220.34
2022-07-31T13:41:23.959Z,100214.53
2022-07-31T13:46:27.121Z,100213.69
2022-07-31T13:51:31.224Z,100206.22
2022-07-31T13:56:42.794Z,100202.69
2022-07-31T14:02:02.813Z,100190.91
2022-07-31T14:07:09.628Z,100193.91
2022-07-31T14:12:15.769Z,100175.38
2022-07-31T14:17:18.552Z,100193.81
2022-07-31T14:22:22.634Z,100190.84
2022-07-31T14:27:25.346Z,100179.09
2022-07-31T14:32:30.403Z,100181.53
2022-07-31T14:37:34.726Z,100175.38
2022-07-31T14:42:37.620Z,100168.03
2022-07-31T14:47:42.546Z,100165.00
2022-07-31T14:52:46.655Z,100151.31
2022-07-31T14:57:50.115Z,100154.16
2022-07-31T15:02:52.897Z,100156.25
2022-07-31T15:07:56.989Z,100153.00
2022-07-31T15:13:01.159Z,100151.94
2022-07-31T15:18:04.219Z,100143.59
2022-07-31T15:23:08.462Z,100154.25
2022-07-31T15:28:11.224Z,100154.59
2022-07-31T15:33:13.983Z,100154.25
2022-07-31T15:38:18.201Z,100145.97
2022-07-31T15:43:21.016Z,100141.31
2022-07-31T15:48:24.558Z,100138.38
2022-07-31T15:53:30.114Z,100130.28
2022-07-31T15:58:42.834Z,100136.94
2022-07-31T16:03:51.080Z,100123.31
2022-07-31T16:08:57.648Z,100116.88
2022-07-31T16:14:00.514Z,100123.69
2022-07-31T16:19:03.339Z,100116.16
2022-07-31T16:24:07.989Z,100117.75
2022-07-31T16:29:17.082Z,100108.56
2022-07-31T16:34:20.434Z,100097.25
2022-07-31T16:39:24.530Z,100094.84
2022-07-31T16:44:27.309Z,100098.38
2022-07-31T16:49:36.825Z,100099.53
2022-07-31T16:54:41.458Z,100093.19
2022-07-31T16:59:56.523Z,100089.63
2022-07-31T17:05:00.660Z,100080.97
2022-07-31T17:10:05.265Z,100079.63
2022-07-31T17:15:08.990Z,100094.50
2022-07-31T17:20:12.380Z,100091.78
2022-07-31T17:25:19.281Z,100093.63
2022-07-31T17:30:22.178Z,100085.13
2022-07-31T17:35:24.982Z,100091.06
2022-07-31T17:40:43.138Z,100088.50
2022-07-31T17:45:59.346Z,100093.75
2022-07-31T17:51:10.146Z,100094.00
2022-07-31T17:56:14.476Z,100094.63
2022-07-31T18:01:17.252Z,100094.75
2022-07-31T18:06:20.230Z,100104.69
2022-07-31T18:11:24.471Z,100105.97
2022-07-31T18:16:27.294Z,100111.78
2022-07-31T18:21:30.169Z,100108.09
2022-07-31T18:26:35.242Z,100108.03
2022-07-31T18:31:37.982Z,100108.00
2022-07-31T18:36:41.138Z,100106.63
2022-07-31T18:41:48.735Z,100106.78
2022-07-31T18:46:53.071Z,100117.88
2022-07-31T18:51:55.833Z,100113.88
2022-07-31T18:56:59.984Z,100116.41
2022-07-31T19:02:03.281Z,100124.13
2022-07-31T19:07:06.365Z,100123.38
2022-07-31T19:12:10.788Z,100116.50
2022-07-31T19:17:16.394Z,100125.09
2022-07-31T19:22:24.118Z,100131.13
2022-07-31T19:27:48.568Z,100143.75
2022-07-31T19:32:51.377Z,100148.50
2022-07-31T19:37:58.478Z,100150.34
2022-07-31T19:43:02.756Z,100153.19
2022-07-31T19:48:06.582Z,100152.88
2022-07-31T19:53:09.342Z,100148.41
2022-07-31T19:58:13.490Z,100151.34
2022-07-31T20:03:16.305Z,100157.16
2022-07-31T20:08:19.104Z,100155.44
2022-07-31T20:13:23.276Z,100158.31
2022-07-31T20:18:28.881Z,100155.88
2022-07-31T20:23:34.143Z,100161.22
2022-07-31T20:28:40.088Z,100163.94
2022-07-31T20:33:47.494Z,100158.38
2022-07-31T20:39:00.114Z,100150.88
2022-07-31T20:44:04.358Z,100151.97
2022-07-31T20:49:07.266Z,100163.38
2022-07-31T20:54:34.430Z,100158.44
2022-07-31T20:59:39.042Z,100150.66
2022-07-31T21:04:42.200Z,100159.28
2022-07-31T21:09:44.898Z,100160.59
2022-07-31T21:14:49.061Z,100157.53
2022-07-31T21:19:52.091Z,100151.50
2022-07-31T21:24:55.705Z,100150.25
2022-07-31T21:30:00.669Z,100144.84
2022-07-31T21:35:04.019Z,100144.38
2022-07-31T21:40:08.423Z,100132.34
2022-07-31T21:45:13.988Z,100127.84
2022-07-31T21:50:29.105Z,100124.09
2022-07-31T21:55:32.250Z,100123.59
2022-07-31T22:00:40.236Z,100119.88
2022-07-31T22:06:00.441Z,100116.28
2022-07-31T22:11:03.305Z,100121.19
2022-07-31T22:16:07.603Z,100126.53
2022-07-31T22:21:10.728Z,100140.22
2022-07-31T22:26:13.782Z,100130.69
2022-07-31T22:31:18.396Z,100122.59
2022-07-31T22:36:21.496Z,100123.06
2022-07-31T22:41:24.517Z,100122.50
2022-07-31T22:46:28.634Z,100127.91
2022-07-31T22:51:38.547Z,100126.78
2022-07-31T22:56:41.921Z,100119.81
2022-07-31T23:01:46.034Z,100114.78
2022-07-31T23:06:48.723Z,100117.94
2022-07-31T23:11:51.490Z,100117.94
2022-07-31T23:16:55.594Z,100123.22
2022-07-31T23:21:58.767Z,100117.81
2022-07-31T23:27:08.044Z,100104.44
2022-07-31T23:32:12.077Z,100106.44
2022-07-31T23:37:14.813Z,100093.94
2022-07-31T23:42:35.240Z,100100.19
2022-07-31T23:47:45.059Z,100089.22
2022-07-31T23:52:49.213Z,100086.00
2022-07-31T23:57:52.005Z,100084.97
